createdAt,value
2023-02-26T00:00:01.880Z,0.66
2023-02-26T00:05:09.393Z,0.59
2023-02-26T00:10:16.658Z,0.56
2023-02-26T00:15:23.930Z,0.57
2023-02-26T00:20:30.666Z,0.55
2023-02-26T00:25:36.563Z,0.52
2023-02-26T00:30:43.896Z,0.48
2023-02-26T00:35:54.475Z,0.44
2023-02-26T00:41:01.069Z,0.43
2023-02-26T00:46:21.112Z,0.44
2023-02-26T00:51:31.982Z,0.42
2023-02-26T00:56:37.742Z,0.37
2023-02-26T01:01:43.854Z,0.30
2023-02-26T01:06:52.750Z,0.28
2023-02-26T01:12:02.724Z,0.30
2023-02-26T01:17:15.336Z,0.29
2023-02-26T01:22:23.920Z,0.24
2023-02-26T01:27:30.117Z,0.18
2023-02-26T01:32:45.220Z,0.15
2023-02-26T01:37:57.603Z,0.16
2023-02-26T01:43:08.006Z,0.16
2023-02-26T01:48:26.990Z,0.13
2023-02-26T01:53:34.305Z,0.10
2023-02-26T01:58:40.575Z,0.02
2023-02-26T02:03:47.189Z,-0.03
2023-02-26T02:08:53.177Z,-0.01
2023-02-26T02:14:10.896Z,-0.00
2023-02-26T02:19:34.379Z,-0.04
2023-02-26T02:24:51.380Z,-0.12
2023-02-26T02:30:11.094Z,-0.15
2023-02-26T02:35:21.634Z,-0.11
2023-02-26T02:40:32.333Z,-0.09
2023-02-26T02:45:42.658Z,-0.11
2023-02-26T02:50:52.191Z,-0.13
2023-02-26T02:56:04.849Z,-0.16
2023-02-26T03:01:15.477Z,-0.20
2023-02-26T03:06:22.016Z,-0.22
2023-02-26T03:11:29.131Z,-0.22
2023-02-26T03:16:49.652Z,-0.21
2023-02-26T03:22:02.420Z,-0.15
2023-02-26T03:27:34.913Z,-0.12
2023-02-26T03:32:50.502Z,-0.12
2023-02-26T03:38:02.057Z,-0.17
2023-02-26T03:43:14.736Z,-0.22
2023-02-26T03:48:25.009Z,-0.24
2023-02-26T03:53:36.527Z,-0.25
2023-02-26T03:58:50.101Z,-0.23
2023-02-26T04:04:15.185Z,-0.14
2023-02-26T04:09:21.977Z,-0.09
2023-02-26T04:14:28.575Z,-0.09
2023-02-26T04:19:34.577Z,-0.12
2023-02-26T04:24:40.948Z,-0.14
2023-02-26T04:29:47.322Z,-0.19
2023-02-26T04:34:53.208Z,-0.22
2023-02-26T04:39:59.814Z,-0.25
2023-02-26T04:45:07.482Z,-0.27
2023-02-26T04:50:15.428Z,-0.25
2023-02-26T04:55:23.564Z,-0.18
2023-02-26T05:00:29.860Z,-0.19
2023-02-26T05:05:36.973Z,-0.17
2023-02-26T05:10:43.595Z,-0.21
2023-02-26T05:15:49.332Z,-0.23
2023-02-26T05:20:56.875Z,-0.27
2023-02-26T05:26:03.131Z,-0.32
2023-02-26T05:31:09.837Z,-0.35
2023-02-26T05:36:15.660Z,-0.38
2023-02-26T05:41:21.692Z,-0.43
2023-02-26T05:46:28.076Z,-0.42
2023-02-26T05:51:34.241Z,-0.38
2023-02-26T05:56:39.870Z,-0.39
2023-02-26T06:01:45.584Z,-0.46
2023-02-26T06:06:51.582Z,-0.55
2023-02-26T06:11:57.614Z,-0.63
2023-02-26T06:17:04.420Z,-0.72
2023-02-26T06:22:11.316Z,-0.81
2023-02-26T06:27:17.452Z,-0.87
2023-02-26T06:32:23.266Z,-0.89
2023-02-26T06:37:29.073Z,-0.86
2023-02-26T06:42:34.959Z,-0.85
2023-02-26T06:47:40.825Z,-0.87
2023-02-26T06:52:46.413Z,-0.90
2023-02-26T06:57:53.188Z,-0.88
2023-02-26T07:02:59.478Z,-0.84
2023-02-26T07:08:06.988Z,-0.78
2023-02-26T07:13:13.492Z,-0.67
2023-02-26T07:18:19.514Z,-0.54
2023-02-26T07:23:25.448Z,-0.37
2023-02-26T07:28:31.634Z,-0.20
2023-02-26T07:33:38.717Z,0.00
2023-02-26T07:38:44.395Z,0.20
2023-02-26T07:43:50.633Z,0.33
2023-02-26T07:48:56.365Z,0.34
2023-02-26T07:54:03.268Z,0.36
2023-02-26T07:59:10.007Z,0.31
2023-02-26T08:04:16.251Z,0.27
2023-02-26T08:09:22.421Z,0.37
2023-02-26T08:14:28.290Z,0.42
2023-02-26T08:19:34.998Z,0.42
2023-02-26T08:24:41.887Z,0.47
2023-02-26T08:29:50.434Z,0.52
2023-02-26T08:34:57.362Z,0.57
2023-02-26T08:40:04.143Z,0.58
2023-02-26T08:45:11.781Z,0.57
2023-02-26T08:50:18.046Z,0.54
2023-02-26T08:55:24.142Z,0.51
2023-02-26T09:00:30.558Z,0.55
2023-02-26T09:05:36.762Z,0.57
2023-02-26T09:10:43.373Z,0.63
2023-02-26T09:15:50.618Z,0.65
2023-02-26T09:20:57.029Z,0.67
2023-02-26T09:26:02.803Z,0.67
2023-02-26T09:31:09.045Z,0.66
2023-02-26T09:36:15.232Z,0.65
2023-02-26T09:41:26.537Z,0.65
2023-02-26T09:46:40.893Z,0.62
2023-02-26T09:51:50.656Z,0.62
2023-02-26T09:57:00.223Z,0.66
2023-02-26T10:02:17.102Z,0.69
2023-02-26T10:07:35.170Z,0.69
2023-02-26T10:12:44.869Z,0.70
2023-02-26T10:18:03.186Z,0.69
2023-02-26T10:23:24.195Z,0.69
2023-02-26T10:28:43.929Z,0.69
2023-02-26T10:33:58.178Z,0.65
2023-02-26T10:39:13.614Z,0.58
2023-02-26T10:44:25.098Z,0.51
2023-02-26T10:49:54.680Z,0.54
2023-02-26T10:55:16.003Z,0.59
2023-02-26T11:00:23.312Z,0.61
2023-02-26T11:05:31.172Z,0.72
2023-02-26T11:10:44.867Z,0.88
2023-02-26T11:15:53.746Z,1.22
2023-02-26T11:21:01.034Z,1.59
2023-02-26T11:26:14.438Z,1.75
2023-02-26T11:31:23.843Z,1.84
2023-02-26T11:36:34.852Z,1.78
2023-02-26T11:41:42.295Z,1.76
2023-02-26T11:46:55.298Z,1.73
2023-02-26T11:52:17.007Z,1.74
2023-02-26T11:57:29.184Z,1.71
2023-02-26T12:02:40.248Z,1.68
2023-02-26T12:07:48.831Z,1.57
2023-02-26T12:13:08.494Z,1.43
2023-02-26T12:18:37.683Z,1.31
2023-02-26T12:24:19.042Z,1.30
2023-02-26T12:29:48.821Z,1.42
2023-02-26T12:35:18.964Z,1.62
2023-02-26T12:40:50.852Z,1.81
2023-02-26T12:46:06.968Z,1.95
2023-02-26T12:51:26.199Z,1.93
2023-02-26T12:56:56.925Z,1.89
2023-02-26T13:02:38.355Z,1.76
2023-02-26T13:08:18.705Z,1.72
2023-02-26T13:13:51.924Z,1.77
2023-02-26T13:19:08.126Z,1.94
2023-02-26T13:24:19.454Z,2.06
2023-02-26T13:29:25.050Z,2.08
2023-02-26T13:34:40.696Z,2.10
2023-02-26T13:39:54.173Z,2.20
2023-02-26T13:45:18.699Z,2.38
2023-02-26T13:50:33.165Z,2.44
2023-02-26T13:55:43.622Z,2.38
2023-02-26T14:01:04.323Z,2.35
2023-02-26T14:06:25.901Z,2.34
2023-02-26T14:12:01.271Z,2.39
2023-02-26T14:17:31.913Z,2.44
2023-02-26T14:22:43.275Z,2.47
2023-02-26T14:27:50.185Z,2.38
2023-02-26T14:33:19.412Z,2.31
2023-02-26T14:38:28.716Z,2.21
2023-02-26T14:43:39.745Z,2.16
2023-02-26T14:48:46.908Z,2.10
2023-02-26T14:54:10.223Z,2.03
2023-02-26T14:59:33.457Z,1.94
2023-02-26T15:05:12.213Z,1.85
2023-02-26T15:10:31.237Z,1.77
2023-02-26T15:15:45.676Z,1.67
2023-02-26T15:21:03.843Z,1.64
2023-02-26T15:26:17.961Z,1.60
2023-02-26T15:31:32.022Z,1.52
2023-02-26T15:36:43.220Z,1.38
2023-02-26T15:41:51.191Z,1.26
2023-02-26T15:47:01.281Z,1.13
2023-02-26T15:52:11.032Z,1.01
2023-02-26T15:57:18.603Z,0.91
2023-02-26T16:02:30.719Z,0.78
2023-02-26T16:07:36.691Z,0.62
2023-02-26T16:12:49.188Z,0.39
2023-02-26T16:17:58.664Z,0.13
2023-02-26T16:23:07.465Z,-0.08
2023-02-26T16:28:19.179Z,-0.28
2023-02-26T16:33:26.761Z,-0.45
2023-02-26T16:38:44.263Z,-0.59
2023-02-26T16:43:58.001Z,-0.70
2023-02-26T16:49:10.616Z,-0.75
2023-02-26T16:54:22.775Z,-0.75
2023-02-26T16:59:32.773Z,-0.76
2023-02-26T17:04:39.407Z,-0.72
2023-02-26T17:09:50.525Z,-0.71
2023-02-26T17:15:00.954Z,-0.77
2023-02-26T17:20:09.826Z,-0.85
2023-02-26T17:25:21.080Z,-0.89
2023-02-26T17:30:32.606Z,-0.91
2023-02-26T17:35:39.243Z,-0.94
2023-02-26T17:40:47.817Z,-0.94
2023-02-26T17:45:53.744Z,-0.86
2023-02-26T17:50:59.964Z,-0.69
2023-02-26T17:56:08.775Z,-0.52
2023-02-26T18:01:14.620Z,-0.38
2023-02-26T18:06:21.519Z,-0.30
2023-02-26T18:11:28.295Z,-0.28
2023-02-26T18:16:39.189Z,-0.29
2023-02-26T18:21:46.370Z,-0.32
2023-02-26T18:26:52.774Z,-0.35
2023-02-26T18:32:00.654Z,-0.42
2023-02-26T18:37:11.218Z,-0.47
2023-02-26T18:42:23.118Z,-0.48
2023-02-26T18:47:29.515Z,-0.49
2023-02-26T18:52:36.140Z,-0.46
2023-02-26T18:57:43.236Z,-0.39
2023-02-26T19:02:50.169Z,-0.33
2023-02-26T19:07:56.427Z,-0.27
2023-02-26T19:13:02.936Z,-0.21
2023-02-26T19:18:10.313Z,-0.19
2023-02-26T19:23:16.032Z,-0.19
2023-02-26T19:28:23.060Z,-0.19
2023-02-26T19:33:29.258Z,-0.18
2023-02-26T19:38:35.423Z,-0.19
2023-02-26T19:43:41.726Z,-0.22
2023-02-26T19:48:47.561Z,-0.24
2023-02-26T19:53:53.541Z,-0.24
2023-02-26T19:58:59.668Z,-0.24
2023-02-26T20:04:06.180Z,-0.19
2023-02-26T20:09:12.882Z,-0.11
2023-02-26T20:14:19.548Z,-0.02
2023-02-26T20:19:25.530Z,0.04
2023-02-26T20:24:33.040Z,0.08
2023-02-26T20:29:39.064Z,0.09
2023-02-26T20:34:45.398Z,0.08
2023-02-26T20:39:51.195Z,0.05
2023-02-26T20:44:57.257Z,0.04
2023-02-26T20:50:03.146Z,0.03
2023-02-26T20:55:10.942Z,0.03
2023-02-26T21:00:18.817Z,0.01
2023-02-26T21:05:26.904Z,0.00
2023-02-26T21:10:33.419Z,-0.01
2023-02-26T21:15:40.343Z,-0.02
2023-02-26T21:20:50.900Z,-0.03
2023-02-26T21:25:57.073Z,0.00
2023-02-26T21:31:02.879Z,0.02
2023-02-26T21:36:11.909Z,0.02
2023-02-26T21:41:17.979Z,0.03
2023-02-26T21:46:24.116Z,0.04
2023-02-26T21:51:30.109Z,0.04
2023-02-26T21:56:36.301Z,0.02
2023-02-26T22:01:42.036Z,0.01
2023-02-26T22:06:47.837Z,0.04
2023-02-26T22:11:54.103Z,0.13
2023-02-26T22:16:59.945Z,0.21
2023-02-26T22:22:06.721Z,0.25
2023-02-26T22:27:13.114Z,0.25
2023-02-26T22:32:19.056Z,0.23
2023-02-26T22:37:25.042Z,0.20
2023-02-26T22:42:31.324Z,0.16
2023-02-26T22:47:37.112Z,0.12
2023-02-26T22:52:43.410Z,0.08
2023-02-26T22:57:49.584Z,0.03
2023-02-26T23:02:55.781Z,-0.02
2023-02-26T23:08:01.552Z,-0.06
2023-02-26T23:13:07.384Z,-0.10
2023-02-26T23:18:13.322Z,-0.07
2023-02-26T23:23:19.110Z,0.02
2023-02-26T23:28:25.505Z,0.10
2023-02-26T23:33:31.576Z,0.12
2023-02-26T23:38:37.749Z,0.09
2023-02-26T23:43:43.427Z,0.05
2023-02-26T23:48:49.012Z,0.02
2023-02-26T23:53:54.768Z,-0.03
2023-02-26T23:59:01.202Z,-0.04
